Canalou, Missouri
Current Conditions -  °F | °C
As of 10:53 AM on Thursday 18 Dec 2014 (Local Time) from KCGI Reporting Station
Overcast Overcast  
Wind Chill: -1°   Ceiling: 700
Heat Index:   Visibility: 7mi
Dew Point:   Wind: 5mph
Humidity: 92%   Direction: 60°ENE
Pressure: 30.29"   Gusts: NA
Location:  36.76°N, 89.69°W
Report Text: KCGI 181653Z 06004KT 7SM OVC007 02/01 A3029 RMK AO2 CIG 006V012 SLP260 T00170006
Loading
Personal Weather Stations






























Interactive Weather Map New forecast layout! Learn more

10-Day Weather Forecast

Advertisements
Track Severe Weather on mobile